createdAt,value
2022-11-30T00:01:18.379Z,101636.22
2022-11-30T00:03:45.045Z,101635.16
2022-11-30T00:06:13.767Z,101644.91
2022-11-30T00:08:40.732Z,101639.31
2022-11-30T00:11:11.713Z,101642.22
2022-11-30T00:13:38.385Z,101640.97
2022-11-30T00:16:05.562Z,101641.78
2022-11-30T00:18:32.692Z,101640.56
2022-11-30T00:21:03.819Z,101633.31
2022-11-30T00:23:34.645Z,101629.75
2022-11-30T00:26:06.189Z,101635.38
2022-11-30T00:28:34.301Z,101632.69
2022-11-30T00:31:05.006Z,101623.16
2022-11-30T00:33:36.255Z,101629.56
2022-11-30T00:36:06.088Z,101628.31
2022-11-30T00:38:33.496Z,101628.56
2022-11-30T00:41:01.909Z,101636.22
2022-11-30T00:43:29.120Z,101627.97
2022-11-30T00:45:57.400Z,101631.19
2022-11-30T00:48:24.224Z,101641.66
2022-11-30T00:50:51.472Z,101637.28
2022-11-30T00:53:18.863Z,101638.97
2022-11-30T00:55:45.937Z,101639.34
2022-11-30T00:58:13.098Z,101643.03
2022-11-30T01:00:41.459Z,101637.06
2022-11-30T01:03:08.623Z,101634.84
2022-11-30T01:05:35.619Z,101650.16
2022-11-30T01:08:03.224Z,101647.47
2022-11-30T01:10:29.757Z,101643.09
2022-11-30T01:12:56.182Z,101647.47
2022-11-30T01:15:23.044Z,101644.38
2022-11-30T01:17:49.549Z,101648.50
2022-11-30T01:20:16.170Z,101651.41
2022-11-30T01:22:42.776Z,101652.69
2022-11-30T01:25:09.339Z,101651.44
2022-11-30T01:27:35.862Z,101643.16
2022-11-30T01:30:03.247Z,101647.28
2022-11-30T01:32:29.713Z,101647.91
2022-11-30T01:34:56.164Z,101644.59
2022-11-30T01:37:23.091Z,101643.16
2022-11-30T01:39:49.552Z,101647.09
2022-11-30T01:42:19.651Z,101648.13
2022-11-30T01:44:55.879Z,101645.22
2022-11-30T01:47:27.212Z,101655.75
2022-11-30T01:50:01.344Z,101651.41
2022-11-30T01:52:35.324Z,101657.00
2022-11-30T01:55:20.734Z,101657.47
2022-11-30T01:58:05.268Z,101648.13
2022-11-30T02:00:31.852Z,101660.56
2022-11-30T02:03:23.290Z,101666.34
2022-11-30T02:05:49.879Z,101653.13
2022-11-30T02:08:17.477Z,101664.31
2022-11-30T02:10:49.762Z,101661.41
2022-11-30T02:13:44.551Z,101659.97
2022-11-30T02:16:25.162Z,101661.75
2022-11-30T02:19:03.948Z,101663.47
2022-11-30T02:21:45.700Z,101670.13
2022-11-30T02:24:20.713Z,101663.47
2022-11-30T02:26:56.052Z,101671.31
2022-11-30T02:29:53.016Z,101661.81
2022-11-30T02:32:27.610Z,101666.56
2022-11-30T02:34:56.877Z,101671.75
2022-11-30T02:37:25.814Z,101670.09
2022-11-30T02:39:52.259Z,101660.78
2022-11-30T02:42:18.708Z,101670.47
2022-11-30T02:44:48.560Z,101664.09
2022-11-30T02:47:22.547Z,101656.44
2022-11-30T02:50:01.181Z,101661.41
2022-11-30T02:52:30.598Z,101655.22
2022-11-30T02:55:02.395Z,101661.00
2022-11-30T02:57:28.831Z,101658.94
2022-11-30T02:59:56.260Z,101664.31
2022-11-30T03:02:22.792Z,101664.91
2022-11-30T03:04:49.384Z,101666.59
2022-11-30T03:07:15.969Z,101663.91
2022-11-30T03:09:43.551Z,101669.31
2022-11-30T03:12:10.045Z,101667.22
2022-11-30T03:14:36.508Z,101658.53
2022-11-30T03:17:03.076Z,101675.91
2022-11-30T03:19:29.705Z,101675.50
2022-11-30T03:21:56.169Z,101677.41
2022-11-30T03:24:22.666Z,101675.13
2022-11-30T03:26:49.121Z,101677.16
2022-11-30T03:29:15.624Z,101678.00
2022-11-30T03:31:42.094Z,101683.00
2022-11-30T03:34:08.709Z,101683.41
2022-11-30T03:36:35.251Z,101683.81
2022-11-30T03:39:02.443Z,101682.78
2022-11-30T03:41:29.206Z,101688.56
2022-11-30T03:43:56.063Z,101685.88
2022-11-30T03:46:23.519Z,101691.69
2022-11-30T03:48:50.039Z,101693.97
2022-11-30T03:51:16.477Z,101693.34
2022-11-30T03:53:42.984Z,101695.44
2022-11-30T03:56:10.774Z,101699.56
2022-11-30T03:58:38.204Z,101701.22
2022-11-30T04:01:23.637Z,101693.97
2022-11-30T04:03:51.640Z,101692.75
2022-11-30T04:06:19.177Z,101692.53
2022-11-30T04:08:45.922Z,101697.69
2022-11-30T04:11:12.786Z,101694.56
2022-11-30T04:13:40.226Z,101696.25
2022-11-30T04:16:07.453Z,101702.03
2022-11-30T04:18:35.883Z,101701.03
2022-11-30T04:21:03.769Z,101712.00
2022-11-30T04:23:33.602Z,101703.72
2022-11-30T04:26:04.227Z,101707.44
2022-11-30T04:28:31.044Z,101717.19
2022-11-30T04:31:00.371Z,101707.84
2022-11-30T04:33:28.324Z,101712.41
2022-11-30T04:35:57.616Z,101722.38
2022-11-30T04:38:25.428Z,101717.78
2022-11-30T04:40:52.252Z,101719.47
2022-11-30T04:43:18.904Z,101721.72
2022-11-30T04:45:46.204Z,101719.00
2022-11-30T04:48:13.444Z,101725.88
2022-11-30T04:50:40.089Z,101720.28
2022-11-30T04:53:07.285Z,101722.97
2022-11-30T04:55:33.897Z,101726.47
2022-11-30T04:58:00.635Z,101722.56
2022-11-30T05:00:27.463Z,101716.13
2022-11-30T05:02:56.550Z,101733.53
2022-11-30T05:05:23.307Z,101729.38
2022-11-30T05:07:59.778Z,101722.97
2022-11-30T05:10:28.123Z,101731.66
2022-11-30T05:12:57.258Z,101733.13
2022-11-30T05:15:23.748Z,101732.28
2022-11-30T05:17:50.251Z,101729.19
2022-11-30T05:20:16.855Z,101731.06
2022-11-30T05:22:43.468Z,101732.72
2022-11-30T05:25:10.483Z,101742.44
2022-11-30T05:27:37.484Z,101736.84
2022-11-30T05:30:05.165Z,101734.97
2022-11-30T05:32:31.630Z,101735.41
2022-11-30T05:34:58.773Z,101733.13
2022-11-30T05:37:25.742Z,101744.72
2022-11-30T05:39:52.186Z,101741.81
2022-11-30T05:42:18.658Z,101739.94
2022-11-30T05:44:45.729Z,101747.22
2022-11-30T05:47:12.525Z,101753.19
2022-11-30T05:49:39.109Z,101755.28
2022-11-30T05:52:05.565Z,101757.56
2022-11-30T05:54:33.865Z,101765.84
2022-11-30T05:57:00.568Z,101759.41
2022-11-30T05:59:27.129Z,101765.22
2022-11-30T06:01:54.329Z,101762.34
2022-11-30T06:04:21.705Z,101766.06
2022-11-30T06:06:49.502Z,101769.56
2022-11-30T06:09:16.854Z,101765.44
2022-11-30T06:11:43.401Z,101754.47
2022-11-30T06:14:09.939Z,101760.66
2022-11-30T06:16:39.422Z,101765.44
2022-11-30T06:19:06.069Z,101757.75
2022-11-30T06:21:32.712Z,101760.06
2022-11-30T06:23:59.218Z,101770.41
2022-11-30T06:26:26.164Z,101774.13
2022-11-30T06:28:52.614Z,101781.19
2022-11-30T06:31:19.168Z,101781.38
2022-11-30T06:33:45.642Z,101783.03
2022-11-30T06:36:12.281Z,101786.13
2022-11-30T06:38:38.784Z,101786.75
2022-11-30T06:41:07.566Z,101791.09
2022-11-30T06:43:35.854Z,101789.66
2022-11-30T06:46:03.626Z,101787.78
2022-11-30T06:48:30.763Z,101788.00
2022-11-30T06:50:58.528Z,101797.09
2022-11-30T06:53:25.303Z,101789.88
2022-11-30T06:55:52.211Z,101795.25
2022-11-30T06:58:19.229Z,101803.53
2022-11-30T07:00:45.806Z,101799.56
2022-11-30T07:03:12.863Z,101802.28
2022-11-30T07:05:42.882Z,101807.66
2022-11-30T07:08:10.210Z,101808.31
2022-11-30T07:10:41.152Z,101809.13
2022-11-30T07:13:10.703Z,101800.63
2022-11-30T07:15:37.954Z,101804.97
2022-11-30T07:18:04.427Z,101805.81
2022-11-30T07:20:31.027Z,101812.22
2022-11-30T07:22:57.756Z,101811.41
2022-11-30T07:25:43.527Z,101814.28
2022-11-30T07:28:09.972Z,101815.09
2022-11-30T07:30:36.471Z,101820.91
2022-11-30T07:33:02.909Z,101815.13
2022-11-30T07:35:29.412Z,101816.78
2022-11-30T07:37:55.998Z,101821.31
2022-11-30T07:40:22.420Z,101831.69
2022-11-30T07:42:55.309Z,101831.47
2022-11-30T07:45:21.760Z,101828.56
2022-11-30T07:47:48.210Z,101832.94
2022-11-30T07:50:14.639Z,101825.69
2022-11-30T07:52:41.115Z,101831.25
2022-11-30T07:55:08.144Z,101836.25
2022-11-30T07:57:34.569Z,101846.38
2022-11-30T08:00:01.083Z,101845.53
2022-11-30T08:02:27.927Z,101850.72
2022-11-30T08:04:57.861Z,101849.28
2022-11-30T08:07:24.436Z,101856.31
2022-11-30T08:09:51.503Z,101852.38
2022-11-30T08:12:17.936Z,101855.91
2022-11-30T08:15:18.193Z,101863.56
2022-11-30T08:17:31.981Z,101866.03
2022-11-30T08:19:58.647Z,101868.13
2022-11-30T08:22:25.185Z,101863.16
2022-11-30T08:24:51.817Z,101865.25
2022-11-30T08:27:18.461Z,101868.94
2022-11-30T08:29:44.982Z,101869.16
2022-11-30T08:32:11.428Z,101871.03
2022-11-30T08:34:37.866Z,101876.22
2022-11-30T08:37:04.434Z,101874.75
2022-11-30T08:39:34.049Z,101877.66
2022-11-30T08:42:01.968Z,101871.66
2022-11-30T08:44:29.678Z,101874.75
2022-11-30T08:46:56.374Z,101876.41
2022-11-30T08:49:24.464Z,101877.44
2022-11-30T08:54:44.737Z,101885.13
2022-11-30T08:57:11.284Z,101889.28
2022-11-30T08:59:38.112Z,101890.91
2022-11-30T09:02:04.620Z,101891.56
2022-11-30T09:04:31.344Z,101893.41
2022-11-30T09:06:59.358Z,101894.84
2022-11-30T09:09:26.450Z,101895.06
2022-11-30T09:11:52.950Z,101898.59
2022-11-30T09:14:19.411Z,101901.91
2022-11-30T09:16:45.875Z,101901.91
2022-11-30T09:19:12.415Z,101900.47
2022-11-30T09:21:39.016Z,101905.44
2022-11-30T09:24:05.724Z,101896.50
2022-11-30T09:26:32.344Z,101904.38
2022-11-30T09:28:58.855Z,101901.28
2022-11-30T09:31:26.923Z,101904.81
2022-11-30T09:33:56.117Z,101900.25
2022-11-30T09:36:27.037Z,101906.06
2022-11-30T09:38:54.579Z,101905.88
2022-11-30T09:41:57.492Z,101905.66
2022-11-30T09:44:35.596Z,101907.72
2022-11-30T09:47:08.083Z,101909.56
2022-11-30T09:49:39.427Z,101907.94
2022-11-30T09:52:13.253Z,101914.13
2022-11-30T09:54:43.086Z,101916.41
2022-11-30T09:57:32.174Z,101910.19
2022-11-30T10:00:06.182Z,101904.19
2022-11-30T10:02:39.449Z,101907.94
2022-11-30T10:05:14.715Z,101906.28
2022-11-30T10:08:12.324Z,101902.13
2022-11-30T10:10:45.037Z,101903.78
2022-11-30T10:13:36.001Z,101899.22
2022-11-30T10:16:02.867Z,101903.16
2022-11-30T10:18:41.655Z,101903.38
2022-11-30T10:21:26.939Z,101888.03
2022-11-30T10:24:26.511Z,101892.41
2022-11-30T10:26:55.410Z,101898.00
2022-11-30T10:29:30.142Z,101901.09
2022-11-30T10:32:01.179Z,101894.88
2022-11-30T10:34:36.039Z,101893.22
2022-11-30T10:37:14.851Z,101895.91
2022-11-30T10:39:58.860Z,101892.41
2022-11-30T10:42:35.092Z,101890.53
2022-11-30T10:45:10.425Z,101887.84
2022-11-30T10:47:43.325Z,101893.84
2022-11-30T10:50:14.977Z,101897.59
2022-11-30T10:52:51.254Z,101886.59
2022-11-30T10:55:21.322Z,101887.22
2022-11-30T10:57:50.972Z,101892.41
2022-11-30T11:00:18.249Z,101894.47
2022-11-30T11:02:47.875Z,101885.13
2022-11-30T11:05:23.787Z,101894.69
2022-11-30T11:08:17.850Z,101900.06
2022-11-30T11:10:52.193Z,101897.59
2022-11-30T11:13:40.654Z,101906.28
2022-11-30T11:16:13.160Z,101909.19
2022-11-30T11:18:53.942Z,101903.38
2022-11-30T11:21:22.600Z,101907.75
2022-11-30T11:23:52.640Z,101906.06
2022-11-30T11:26:30.310Z,101906.28
2022-11-30T11:29:00.886Z,101911.47
2022-11-30T11:31:35.121Z,101910.00
2022-11-30T11:34:05.621Z,101919.75
2022-11-30T11:36:34.027Z,101912.50
2022-11-30T11:39:00.988Z,101910.00
2022-11-30T11:41:29.211Z,101912.69
2022-11-30T11:44:06.213Z,101908.34
2022-11-30T11:46:36.357Z,101898.81
2022-11-30T11:49:05.008Z,101906.50
2022-11-30T11:51:31.764Z,101918.94
2022-11-30T11:54:07.230Z,101906.69
2022-11-30T11:56:36.755Z,101917.25
2022-11-30T11:59:09.304Z,101911.06
2022-11-30T12:02:02.101Z,101905.88
2022-11-30T12:05:11.296Z,101906.47
2022-11-30T12:07:37.797Z,101900.88
2022-11-30T12:10:50.561Z,101907.09
2022-11-30T12:13:33.165Z,101912.06
2022-11-30T12:16:26.027Z,101921.41
2022-11-30T12:19:17.440Z,101916.66
2022-11-30T12:21:46.916Z,101917.47
2022-11-30T12:24:16.159Z,101923.25
2022-11-30T12:27:07.375Z,101925.13
2022-11-30T12:29:52.864Z,101927.63
2022-11-30T12:32:47.279Z,101931.34
2022-11-30T12:35:33.372Z,101929.91
2022-11-30T12:38:41.561Z,101933.63
2022-11-30T12:41:13.937Z,101930.94
2022-11-30T12:43:55.712Z,101930.13
2022-11-30T12:46:40.247Z,101925.75
2022-11-30T12:49:26.619Z,101934.44
2022-11-30T12:52:35.177Z,101922.84
2022-11-30T12:55:20.642Z,101924.94
2022-11-30T12:58:19.240Z,101929.69
2022-11-30T13:00:59.307Z,101928.03
2022-11-30T13:03:29.096Z,101926.81
2022-11-30T13:06:05.653Z,101928.44
2022-11-30T13:08:49.123Z,101931.97
2022-11-30T13:11:21.587Z,101939.41
2022-11-30T13:13:52.482Z,101937.78
2022-11-30T13:16:22.195Z,101938.38
2022-11-30T13:18:51.367Z,101937.97
2022-11-30T13:21:28.862Z,101944.19
2022-11-30T13:24:08.637Z,101949.81
2022-11-30T13:26:55.861Z,101938.81
2022-11-30T13:29:40.853Z,101935.91
2022-11-30T13:32:41.067Z,101947.09
2022-11-30T13:35:29.394Z,101946.50
2022-11-30T13:38:34.679Z,101942.78
2022-11-30T13:40:59.478Z,101938.22
2022-11-30T13:43:29.085Z,101950.84
2022-11-30T13:46:05.936Z,101945.88
2022-11-30T13:48:37.662Z,101943.59
2022-11-30T13:51:05.051Z,101945.69
2022-11-30T13:53:38.627Z,101953.75
2022-11-30T13:56:17.390Z,101950.22
2022-11-30T13:59:22.660Z,101941.72
2022-11-30T14:01:50.165Z,101941.31
2022-11-30T14:04:31.534Z,101951.47
2022-11-30T14:07:00.712Z,101940.28
2022-11-30T14:09:42.947Z,101954.38
2022-11-30T14:12:31.466Z,101951.69
2022-11-30T14:15:04.058Z,101952.09
2022-11-30T14:17:33.914Z,101955.59
2022-11-30T14:20:37.761Z,101960.16
2022-11-30T14:23:07.423Z,101959.56
2022-11-30T14:25:35.470Z,101964.53
2022-11-30T14:28:05.669Z,101959.97
2022-11-30T14:30:33.951Z,101972.63
2022-11-30T14:33:06.514Z,101965.34
2022-11-30T14:35:33.587Z,101968.25
2022-11-30T14:38:01.099Z,101962.66
2022-11-30T14:40:30.589Z,101964.75
2022-11-30T14:43:02.990Z,101962.03
2022-11-30T14:45:32.041Z,101964.53
2022-11-30T14:48:06.374Z,101960.78
2022-11-30T14:50:33.530Z,101969.91
2022-11-30T14:53:26.793Z,101970.53
2022-11-30T14:56:12.143Z,101970.72
2022-11-30T14:58:52.559Z,101974.25
2022-11-30T15:01:21.952Z,101973.84
2022-11-30T15:03:51.345Z,101971.75
2022-11-30T15:06:19.960Z,101970.13
2022-11-30T15:08:53.765Z,101985.88
2022-11-30T15:11:21.577Z,101973.84
2022-11-30T15:13:50.962Z,101974.88
2022-11-30T15:16:30.579Z,101981.31
2022-11-30T15:18:58.958Z,101978.81
2022-11-30T15:21:30.542Z,101979.63
2022-11-30T15:24:00.000Z,101982.31
2022-11-30T15:26:33.360Z,101980.91
2022-11-30T15:29:16.794Z,101978.41
2022-11-30T15:31:48.279Z,101984.81
2022-11-30T15:34:21.235Z,101993.28
2022-11-30T15:36:48.315Z,101992.03
2022-11-30T15:39:22.453Z,101998.03
2022-11-30T15:42:00.259Z,101999.06
2022-11-30T15:44:37.979Z,101997.44
2022-11-30T15:47:08.026Z,102001.19
2022-11-30T15:49:36.299Z,101992.91
2022-11-30T15:52:04.721Z,101998.09
2022-11-30T15:54:53.936Z,102009.47
2022-11-30T15:57:21.718Z,102003.66
2022-11-30T16:00:19.054Z,102004.50
2022-11-30T16:02:45.698Z,101998.69
2022-11-30T16:05:14.465Z,102002.41
2022-11-30T16:07:59.872Z,102003.25
2022-11-30T16:10:35.612Z,102008.00
2022-11-30T16:13:02.469Z,102006.97
2022-11-30T16:15:31.700Z,102005.53
2022-11-30T16:18:18.860Z,102011.50
2022-11-30T16:20:48.145Z,102013.59
2022-11-30T16:23:15.720Z,102018.38
2022-11-30T16:25:43.306Z,102023.72
2022-11-30T16:28:11.294Z,102021.06
2022-11-30T16:30:38.410Z,102023.13
2022-11-30T16:33:05.329Z,102035.16
2022-11-30T16:35:42.096Z,102036.56
2022-11-30T16:38:08.687Z,102035.13
2022-11-30T16:40:38.847Z,102039.91
2022-11-30T16:43:06.040Z,102039.72
2022-11-30T16:45:37.896Z,102035.13
2022-11-30T16:48:05.359Z,102043.59
2022-11-30T16:50:34.563Z,102041.75
2022-11-30T16:53:03.140Z,102043.81
2022-11-30T16:55:34.590Z,102038.25
2022-11-30T16:58:01.870Z,102037.03
2022-11-30T17:00:28.961Z,102043.03
2022-11-30T17:03:05.057Z,102047.53
2022-11-30T17:05:32.370Z,102050.03
2022-11-30T17:07:59.255Z,102050.25
2022-11-30T17:10:26.440Z,102054.78
2022-11-30T17:12:52.952Z,102054.75
2022-11-30T17:15:23.496Z,102050.69
2022-11-30T17:17:50.377Z,102047.34
2022-11-30T17:20:17.784Z,102055.41
2022-11-30T17:22:44.648Z,102062.63
2022-11-30T17:25:17.386Z,102061.44
2022-11-30T17:27:44.528Z,102062.06
2022-11-30T17:30:13.576Z,102068.44
2022-11-30T17:32:40.094Z,102076.94
2022-11-30T17:35:08.152Z,102075.50
2022-11-30T17:37:35.121Z,102073.84
2022-11-30T17:40:04.049Z,102073.44
2022-11-30T17:42:31.261Z,102082.31
2022-11-30T17:44:57.852Z,102076.75
2022-11-30T17:47:24.430Z,102071.72
2022-11-30T17:49:51.432Z,102076.94
2022-11-30T17:52:18.242Z,102076.09
2022-11-30T17:54:44.742Z,102075.31
2022-11-30T17:57:11.254Z,102084.38
2022-11-30T17:59:37.719Z,102082.72
2022-11-30T18:02:04.267Z,102089.78
2022-11-30T18:04:30.940Z,102092.25
2022-11-30T18:06:57.497Z,102092.81
2022-11-30T18:09:24.300Z,102092.66
2022-11-30T18:11:50.769Z,102096.16
2022-11-30T18:14:17.256Z,102092.44
2022-11-30T18:16:43.828Z,102099.91
2022-11-30T18:19:14.890Z,102096.78
2022-11-30T18:21:44.126Z,102097.59
2022-11-30T18:24:12.039Z,102105.06
2022-11-30T18:26:39.029Z,102104.47
2022-11-30T18:29:06.175Z,102105.28
2022-11-30T18:31:32.728Z,102100.94
2022-11-30T18:34:05.003Z,102097.63
2022-11-30T18:36:33.252Z,102102.44
2022-11-30T18:39:00.656Z,102109.84
2022-11-30T18:41:28.608Z,102106.97
2022-11-30T18:43:55.323Z,102109.66
2022-11-30T18:46:22.152Z,102111.25
2022-11-30T18:48:50.575Z,102111.72
2022-11-30T18:51:23.344Z,102112.94
2022-11-30T18:53:57.422Z,102120.63
2022-11-30T18:56:28.176Z,102115.63
2022-11-30T18:58:56.683Z,102125.81
2022-11-30T19:01:24.147Z,102123.94
2022-11-30T19:04:02.494Z,102124.53
2022-11-30T19:06:29.981Z,102123.53
2022-11-30T19:08:57.145Z,102122.44
2022-11-30T19:11:23.688Z,102124.38
2022-11-30T19:13:54.987Z,102133.25
2022-11-30T19:16:22.014Z,102131.38
2022-11-30T19:18:48.756Z,102135.69
2022-11-30T19:21:17.126Z,102133.66
2022-11-30T19:23:44.807Z,102137.78
2022-11-30T19:26:12.012Z,102138.56
2022-11-30T19:28:39.658Z,102134.88
2022-11-30T19:31:17.783Z,102142.16
2022-11-30T19:33:46.849Z,102139.22
2022-11-30T19:36:16.376Z,102140.44
2022-11-30T19:38:42.911Z,102143.38
2022-11-30T19:41:11.334Z,102132.47
2022-11-30T19:43:38.219Z,102142.34
2022-11-30T19:46:05.895Z,102142.13
2022-11-30T19:48:33.568Z,102152.28
2022-11-30T19:51:03.634Z,102153.31
2022-11-30T19:53:32.120Z,102142.34
2022-11-30T19:55:58.791Z,102142.75
2022-11-30T19:58:25.310Z,102140.84
2022-11-30T20:00:51.745Z,102135.44
2022-11-30T20:03:18.757Z,102145.47
2022-11-30T20:05:49.747Z,102146.50
2022-11-30T20:08:16.741Z,102146.25
2022-11-30T20:10:43.216Z,102152.50
2022-11-30T20:13:09.709Z,102151.88
2022-11-30T20:15:39.690Z,102151.88
2022-11-30T20:18:07.422Z,102155.97
2022-11-30T20:20:34.833Z,102154.28
2022-11-30T20:23:04.651Z,102150.44
2022-11-30T20:25:32.896Z,102149.00
2022-11-30T20:28:00.169Z,102157.00
2022-11-30T20:30:27.311Z,102153.72
2022-11-30T20:32:53.851Z,102152.69
2022-11-30T20:35:20.317Z,102153.13
2022-11-30T20:37:46.884Z,102160.78
2022-11-30T20:40:13.540Z,102168.59
2022-11-30T20:42:39.989Z,102170.25
2022-11-30T20:45:07.319Z,102165.69
2022-11-30T20:47:36.581Z,102162.81
2022-11-30T20:50:04.934Z,102159.72
2022-11-30T20:52:31.516Z,102162.75
2022-11-30T20:54:57.987Z,102166.13
2022-11-30T20:57:24.647Z,102157.81
2022-11-30T20:59:51.078Z,102151.38
2022-11-30T21:02:17.705Z,102161.31
2022-11-30T21:04:44.236Z,102159.69
2022-11-30T21:07:10.682Z,102159.69
2022-11-30T21:09:37.193Z,102155.69
2022-11-30T21:12:03.933Z,102148.09
2022-11-30T21:14:30.468Z,102147.28
2022-11-30T21:16:57.024Z,102154.44
2022-11-30T21:19:23.564Z,102152.84
2022-11-30T21:21:50.120Z,102157.63
2022-11-30T21:24:16.581Z,102159.44
2022-11-30T21:26:43.856Z,102160.28
2022-11-30T21:29:12.994Z,102162.09
2022-11-30T21:31:39.838Z,102164.00
2022-11-30T21:34:06.575Z,102170.41
2022-11-30T21:36:33.232Z,102169.16
2022-11-30T21:39:05.953Z,102174.34
2022-11-30T21:41:39.365Z,102168.59
2022-11-30T21:44:07.968Z,102166.78
2022-11-30T21:46:34.641Z,102172.50
2022-11-30T21:49:02.216Z,102173.88
2022-11-30T21:51:31.956Z,102170.38
2022-11-30T21:54:04.932Z,102172.03
2022-11-30T21:56:34.270Z,102174.91
2022-11-30T21:59:03.356Z,102165.38
2022-11-30T22:01:37.315Z,102167.66
2022-11-30T22:04:06.229Z,102169.50
2022-11-30T22:06:34.917Z,102173.25
2022-11-30T22:09:07.787Z,102158.00
2022-11-30T22:11:40.635Z,102164.34
2022-11-30T22:14:11.802Z,102165.59
2022-11-30T22:16:38.696Z,102167.28
2022-11-30T22:19:06.639Z,102169.97
2022-11-30T22:21:34.256Z,102176.03
2022-11-30T22:24:10.410Z,102170.38
2022-11-30T22:26:39.367Z,102178.88
2022-11-30T22:29:15.327Z,102168.34
2022-11-30T22:31:44.292Z,102178.06
2022-11-30T22:34:11.436Z,102174.34
2022-11-30T22:36:39.819Z,102173.88
2022-11-30T22:39:12.338Z,102172.00
2022-11-30T22:41:40.589Z,102171.66
2022-11-30T22:44:07.242Z,102171.59
2022-11-30T22:46:35.489Z,102175.13
2022-11-30T22:49:04.211Z,102173.44
2022-11-30T22:51:32.415Z,102172.84
2022-11-30T22:54:00.155Z,102174.59
2022-11-30T22:56:32.122Z,102166.59
2022-11-30T22:59:00.895Z,102169.31
2022-11-30T23:01:29.285Z,102168.91
2022-11-30T23:04:01.055Z,102162.06
2022-11-30T23:06:27.775Z,102165.13
2022-11-30T23:08:54.332Z,102173.44
2022-11-30T23:11:24.009Z,102170.13
2022-11-30T23:13:51.461Z,102164.94
2022-11-30T23:16:18.499Z,102168.41
2022-11-30T23:18:50.715Z,102165.72
2022-11-30T23:21:20.960Z,102173.00
2022-11-30T23:23:47.656Z,102166.13
2022-11-30T23:26:15.527Z,102173.09
2022-11-30T23:28:44.088Z,102175.59
2022-11-30T23:31:33.716Z,102163.19
2022-11-30T23:33:59.994Z,102160.13
2022-11-30T23:36:26.631Z,102163.19
2022-11-30T23:38:58.704Z,102171.69
2022-11-30T23:41:25.644Z,102172.91
2022-11-30T23:43:52.705Z,102171.50
2022-11-30T23:46:19.419Z,102165.72
2022-11-30T23:48:45.968Z,102168.88
2022-11-30T23:51:12.421Z,102172.34
2022-11-30T23:53:38.978Z,102173.53
2022-11-30T23:56:11.540Z,102165.03
2022-11-30T23:58:39.567Z,102166.31
